Latest Weather Observations for Yanco

IDN60801

Issued at 10:02 pm EST Tuesday 23 May 2017 (issued every 30 minutes, with the page automatically refreshed every 10 minutes)

About weather observations | Map of weather stations | Latest weather observations for NSW | Other Formats
Station Details ID: 074037 Name: YANCO AGRICULTURAL INSTITUTE Lat: -34.62 Lon: 146.43 Height: 164.0 m
Data from the previous 72 hours. | See also: Recent months at Yanco
Date/Time
EST
Temp
°C
App
Temp
°C
Dew
Point
°C
Rel
Hum
%
Delta-T
°C
Wind Press
QNH
hPa
Press
MSL
hPa
Rain since
9am
mm
Dir  Spd
km/h
Gust
km/h
Spd
kts
Gust
kts
23/10:00pm 13.9 13.0 12.6 92 0.7 ENE 9 9 5 5 - - 0.8
23/09:30pm 13.9 13.8 13.3 96 0.3 E 6 7 3 4 - - 0.4
23/09:00pm 14.1 14.7 13.1 94 0.6 E 2 6 1 3 - - 0.2
23/08:30pm 14.4 13.8 13.6 95 0.4 ENE 9 9 5 5 - - 0.0
23/08:00pm 13.4 13.0 12.9 97 0.3 ENE 7 9 4 5 - - 0.0
23/07:30pm 14.0 14.0 13.7 98 0.2 NNE 6 7 3 4 - - 0.0
23/07:00pm 14.0 14.3 13.4 96 0.3 NNE 4 4 2 2 - - 0.0
23/06:30pm 14.1 13.5 13.5 96 0.3 N 9 13 5 7 - - 0.0
23/06:00pm 15.0 14.0 12.3 84 1.5 WNW 9 17 5 9 - - 0.0
23/05:30pm 16.1 15.8 11.3 73 2.6 N 4 13 2 7 - - 0.0
23/05:00pm 16.6 15.0 11.7 73 2.7 N 11 17 6 9 - - 0.0
23/04:30pm 17.5 16.8 12.0 70 3.0 N 7 9 4 5 - - 0.0
23/04:00pm 18.4 17.3 11.9 66 3.6 NNE 9 13 5 7 - - 0.0
23/03:30pm 17.9 16.3 11.5 66 3.5 NNE 11 17 6 9 - - 0.0
23/03:00pm 18.0 16.4 11.6 66 3.5 N 11 13 6 7 - - 0.0
23/02:30pm 18.8 17.9 11.4 62 4.1 N 7 13 4 7 - - 0.0
23/02:00pm 19.8 18.7 11.8 60 4.5 NNE 9 13 5 7 - - 0.0
23/01:30pm 17.8 15.3 11.1 65 3.7 NE 15 19 8 10 - - 0.0
23/01:00pm 19.3 17.8 11.8 62 4.2 NNW 11 17 6 9 - - 0.0
23/12:30pm 17.6 16.0 11.4 67 3.4 NNW 11 17 6 9 - - 0.0
23/12:00pm 17.0 15.9 10.6 66 3.4 N 7 15 4 8 - - 0.0
23/11:30am 16.7 14.7 10.3 66 3.4 N 11 17 6 9 - - 0.0
23/11:00am 17.3 14.9 10.0 62 3.9 N 13 20 7 11 - - 0.0
23/10:30am 17.4 16.7 12.1 71 2.9 NNW 7 11 4 6 - - 0.0
23/10:00am 14.8 14.6 11.9 83 1.6 NNE 4 6 2 3 - - 0.0
23/09:30am 12.9 12.3 11.8 93 0.6 E 6 7 3 4 - - 0.0
23/09:00am 11.8 10.0 11.0 95 0.4 E 11 13 6 7 - - 0.0
23/08:30am 11.3 9.1 10.7 96 0.3 E 13 19 7 10 - - 0.0
23/08:00am 10.6 7.4 10.0 96 0.3 E 17 19 9 10 - - 0.0
23/07:30am 10.5 7.3 9.9 96 0.3 E 17 20 9 11 - - 0.0
23/07:00am 10.4 7.5 9.6 95 0.4 E 15 17 8 9 - - 0.0
23/06:30am 10.7 8.2 9.8 94 0.5 E 13 15 7 8 - - 0.0
23/06:00am 10.4 8.3 9.8 96 0.3 E 11 13 6 7 - - 0.0
23/05:30am 10.1 10.0 9.6 97 0.3 CALM 0 0 0 0 - - 0.0
23/05:00am 9.8 9.6 9.2 96 0.3 CALM 0 0 0 0 - - 0.0
23/04:30am 9.7 8.7 8.9 95 0.4 WNW 4 6 2 3 - - 0.0
23/04:00am 10.0 9.0 8.8 92 0.6 NNE 4 6 2 3 - - 0.0
23/03:30am 10.4 8.9 9.0 91 0.7 ENE 7 9 4 5 - - 0.0
23/03:00am 10.8 8.6 9.2 90 0.8 ENE 11 15 6 8 - - 0.0
23/02:30am 10.9 7.8 9.0 88 1.0 E 15 17 8 9 - - 0.0
23/02:00am 11.3 7.9 9.0 86 1.2 ENE 17 19 9 10 - - 0.0
23/01:30am 11.7 8.3 9.1 84 1.3 E 17 19 9 10 - - 0.0
23/01:00am 12.2 9.1 9.0 81 1.6 ENE 15 20 8 11 - - 0.0
23/12:30am 11.4 9.5 9.0 85 1.2 ENE 9 13 5 7 - - 0.0
23/12:00am 11.0 9.1 8.9 87 1.0 ENE 9 15 5 8 - - 0.0
 
Date/Time
EST
Temp
°C
App
Temp
°C
Dew
Point
°C
Rel
Hum
%
Delta-T
°C
Wind Press
QNH
hPa
Press
MSL
hPa
Rain since
9am
mm
Dir  Spd
km/h
Gust
km/h
Spd
kts
Gust
kts
22/11:30pm 11.7 10.6 8.6 81 1.5 ENE 4 9 2 5 - - 0.0
22/11:00pm 12.4 9.7 8.9 79 1.8 ENE 13 15 7 8 - - 0.0
22/10:30pm 12.5 9.8 8.8 78 1.9 E 13 15 7 8 - - 0.0
22/10:00pm 12.6 10.2 8.5 76 2.1 ENE 11 13 6 7 - - 0.0
22/09:30pm 13.6 10.9 9.1 74 2.3 ENE 13 15 7 8 - - 0.0
22/09:00pm 13.2 10.6 7.9 70 2.6 ENE 11 15 6 8 - - 0.0
22/08:30pm 13.3 10.6 7.3 67 2.9 ENE 11 13 6 7 - - 0.0
22/08:00pm 14.6 11.5 7.2 61 3.7 NE 13 17 7 9 - - 0.0
22/07:30pm 15.5 12.3 7.0 57 4.2 NE 13 15 7 8 - - 0.0
22/07:00pm 15.0 12.4 6.3 56 4.2 ENE 9 9 5 5 - - 0.0
22/06:30pm 15.6 13.2 6.9 56 4.3 ENE 9 11 5 6 - - 0.0
22/06:00pm 16.3 14.0 7.3 55 4.5 NE 9 9 5 5 - - 0.0
22/05:30pm 16.8 14.8 7.2 53 4.8 NE 7 9 4 5 - - 0.0
22/05:00pm 18.7 16.7 7.2 47 5.9 NNE 7 9 4 5 - - 0.0
22/04:30pm 20.1 18.1 7.1 43 6.7 NNE 7 13 4 7 - - 0.0
22/04:00pm 20.8 17.9 6.4 39 7.3 NE 11 15 6 8 - - 0.0
22/03:30pm 21.1 18.8 7.3 41 7.1 NE 9 13 5 7 - - 0.0
22/03:00pm 21.0 18.3 7.3 41 7.1 NE 11 19 6 10 - - 0.0
22/02:30pm 21.2 18.7 6.7 39 7.4 NE 9 13 5 7 - - 0.0
22/02:00pm 20.9 17.9 6.1 38 7.5 ENE 11 19 6 10 - - 0.0
22/01:30pm 20.9 18.0 6.4 39 7.4 E 11 17 6 9 - - 0.0
22/01:00pm 20.6 18.2 7.2 42 6.9 NE 9 17 5 9 - - 0.0
22/12:30pm 20.4 19.0 8.7 47 6.2 NE 6 11 3 6 - - 0.0
22/12:00pm 19.4 17.9 9.3 52 5.4 ENE 7 11 4 6 - - 0.0
22/11:30am 18.8 17.2 8.7 52 5.3 ENE 7 13 4 7 - - 0.0
22/11:00am 18.0 16.9 10.1 60 4.2 NE 6 7 3 4 - - 0.0
22/10:30am 16.8 15.9 10.6 67 3.3 ENE 6 9 3 5 - - 0.0
22/10:00am 15.4 14.9 10.8 74 2.5 E 4 7 2 4 - - 0.0
22/09:30am 13.7 13.2 10.7 82 1.6 E 4 6 2 3 - - 0.0
22/09:00am 12.6 11.5 10.5 87 1.1 E 7 9 4 5 - - 0.0
22/08:30am 11.2 8.8 10.0 92 0.6 E 13 17 7 9 - - 0.0
22/08:00am 10.5 8.4 9.9 96 0.3 E 11 15 6 8 - - 0.0
22/07:30am 9.5 6.5 9.4 99 0.1 E 15 17 8 9 - - 0.0
22/07:00am 9.3 5.9 9.2 99 0.0 E 17 20 9 11 - - 0.0
22/06:30am 9.4 6.4 9.3 99 0.0 E 15 17 8 9 - - 0.0
22/06:00am 9.7 6.7 9.4 98 0.2 E 15 17 8 9 - - 0.0
22/05:30am 9.7 7.1 9.2 97 0.2 E 13 15 7 8 - - 0.0
22/05:00am 10.0 7.4 9.4 96 0.3 E 13 15 7 8 - - 0.0
22/04:30am 10.1 7.9 9.2 94 0.5 E 11 13 6 7 - - 0.0
22/04:00am 10.3 8.1 9.5 95 0.4 E 11 13 6 7 - - 0.0
22/03:30am 10.3 8.1 9.4 94 0.5 E 11 13 6 7 - - 0.0
22/03:00am 10.4 8.5 9.0 91 0.7 E 9 11 5 6 - - 0.0
22/02:30am 11.1 9.3 9.4 89 0.9 E 9 11 5 6 - - 0.0
22/02:00am 11.6 9.4 9.5 87 1.1 E 11 13 6 7 - - 0.0
22/01:30am 11.6 9.4 9.5 87 1.1 E 11 13 6 7 - - 0.0
22/01:00am 11.3 8.8 9.6 89 0.9 E 13 15 7 8 - - 0.0
22/12:30am 11.5 9.0 9.6 88 1.0 E 13 15 7 8 - - 0.0
22/12:00am 11.7 9.2 9.8 88 1.0 E 13 15 7 8 - - 0.0
 
Date/Time
EST
Temp
°C
App
Temp
°C
Dew
Point
°C
Rel
Hum
%
Delta-T
°C
Wind Press
QNH
hPa
Press
MSL
hPa
Rain since
9am
mm
Dir  Spd
km/h
Gust
km/h
Spd
kts
Gust
kts
21/11:30pm 11.8 9.3 9.7 87 1.1 E 13 15 7 8 - - 0.0
21/11:00pm 12.1 9.6 9.7 85 1.2 E 13 13 7 7 - - 0.0
21/10:30pm 12.0 9.9 9.6 85 1.2 E 11 13 6 7 - - 0.0
21/10:00pm 12.3 10.3 10.0 86 1.2 E 11 13 6 7 - - 0.0
21/09:30pm 12.2 10.1 9.6 84 1.3 E 11 13 6 7 - - 0.0
21/09:00pm 12.7 10.6 9.9 83 1.4 E 11 13 6 7 - - 0.0
21/08:30pm 13.0 11.0 10.2 83 1.5 E 11 13 6 7 - - 0.0
21/08:00pm 13.2 11.5 10.0 81 1.7 E 9 9 5 5 - - 0.0
21/07:30pm 13.5 11.8 9.9 79 1.9 E 9 9 5 5 - - 0.0
21/07:00pm 14.3 12.9 9.5 73 2.5 E 7 9 4 5 - - 0.0
21/06:30pm 14.8 13.5 10.0 73 2.5 E 7 9 4 5 - - 0.0
21/06:00pm 15.5 14.4 9.8 69 3.0 ESE 6 7 3 4 - - 0.0
21/05:30pm 16.7 15.4 9.1 61 4.0 S 6 7 3 4 - - 0.0
21/05:00pm 17.7 16.8 9.3 58 4.4 S 4 6 2 3 - - 0.0
21/04:30pm 18.9 17.6 9.1 53 5.2 S 6 7 3 4 - - 0.0
21/04:00pm 19.4 18.2 9.6 53 5.2 S 6 9 3 5 - - 0.0
21/03:30pm 20.5 20.2 10.0 51 5.7 WSW 2 7 1 4 - - 0.0
21/03:00pm 20.0 18.9 9.9 52 5.5 WSW 6 9 3 5 - - 0.0
21/02:30pm 20.1 19.1 8.8 48 6.0 SSW 4 9 2 5 - - 0.0
21/02:00pm 20.2 19.0 9.7 51 5.7 NW 6 9 3 5 - - 0.0
21/01:30pm 19.8 18.7 10.5 55 5.1 WSW 7 11 4 6 - - 0.0
21/01:00pm 19.4 18.6 9.6 53 5.2 SW 4 6 2 3 - - 0.0
21/12:30pm 17.9 17.3 10.3 61 4.1 SSW 4 6 2 3 - - 0.0
21/12:00pm 17.9 17.4 10.8 63 3.9 SSW 4 7 2 4 - - 0.0
21/11:30am 17.5 17.3 11.8 69 3.1 W 4 6 2 3 - - 0.0
21/11:00am 16.3 17.3 13.2 82 1.7 CALM 0 4 0 2 - - 0.0
21/10:30am 15.2 15.6 13.6 90 0.9 SW 4 6 2 3 - - 0.0
21/10:00am 14.3 15.1 13.7 96 0.3 SSE 2 4 1 2 - - 0.0
21/09:30am 13.4 14.2 12.6 95 0.4 CALM 0 0 0 0 - - 0.0
21/09:00am 12.6 12.3 12.6 100 0.0 E 6 7 3 4 - - 0.2
21/08:30am 11.2 10.3 11.2 100 0.0 E 7 9 4 5 - - 0.2
21/08:00am 10.0 9.3 10.0 100 0.0 E 4 6 2 3 - - 0.2
21/07:30am 8.5 7.0 8.5 100 0.0 E 6 7 3 4 - - 0.2
21/07:00am 8.0 6.4 7.9 99 0.0 E 6 6 3 3 - - 0.2
21/06:30am 7.8 6.5 7.7 99 0.0 E 4 6 2 3 - - 0.0
21/06:00am 7.1 5.6 7.0 99 0.0 E 4 6 2 3 - - 0.0
21/05:30am 7.2 6.5 7.1 99 0.0 CALM 0 2 0 1 - - 0.0
21/05:00am 9.5 8.1 9.4 99 0.1 E 7 9 4 5 - - 0.0
21/04:30am 8.6 8.3 8.5 99 0.0 CALM 0 2 0 1 - - 0.0
21/04:00am 9.0 7.9 8.6 97 0.2 E 4 4 2 2 - - 0.0
21/03:30am 11.2 9.8 11.0 99 0.1 E 9 11 5 6 - - 0.0
21/03:00am 11.3 10.0 11.1 99 0.1 E 9 11 5 6 - - 0.0
21/02:30am 11.5 10.3 11.5 100 0.0 E 9 11 5 6 - - 0.0
21/02:00am 9.7 8.7 8.8 94 0.4 ESE 4 7 2 4 - - 0.0
21/01:30am 11.4 10.5 11.2 99 0.1 ESE 7 9 4 5 - - 0.0
21/01:00am 11.1 10.0 10.6 97 0.3 ESE 7 9 4 5 - - 0.0
21/12:30am 11.9 11.1 11.7 99 0.1 ESE 7 9 4 5 - - 0.0
21/12:00am 11.8 11.0 11.6 99 0.1 E 7 11 4 6 - - 0.0
 
Date/Time
EST
Temp
°C
App
Temp
°C
Dew
Point
°C
Rel
Hum
%
Delta-T
°C
Wind Press
QNH
hPa
Press
MSL
hPa
Rain since
9am
mm
Dir  Spd
km/h
Gust
km/h
Spd
kts
Gust
kts
20/11:30pm 11.1 10.9 10.6 97 0.3 E 2 7 1 4 - - 0.0
20/11:00pm 11.1 10.5 10.3 95 0.4 E 4 6 2 3 - - 0.0
20/10:30pm 12.0 10.8 11.5 97 0.3 E 9 9 5 5 - - 0.0

Other Formats:

Comma delimited format used in spreadsheet applications
http://www.bom.gov.au/fwo/IDN60801/IDN60801.95705.axf

JavaScript Object Notation format (JSON) in row-major order
http://www.bom.gov.au/fwo/IDN60801/IDN60801.95705.json